Tenn Ridge, Tennessee
Current Conditions -  °F | °C
As of 3:58 AM on Saturday 01 Nov 2014 (Local Time) from KHOP Reporting Station
Scattered Clouds Scattered Clouds  
Wind Chill: 29°   Ceiling: Unl
Heat Index: 35°   Visibility: 10mi
Dew Point: 25°   Wind: 8mph
Humidity: 67%   Direction: 330°NNW
Pressure: 30.22"   Gusts: NA
Location:  36.3449°N, 87.805°W
Report Text: KHOP 010858Z AUTO 33007KT 10SM SCT037 02/M04 A3022 RMK AO2 SLP238 T00181038 52007
Loading
Personal Weather Stations






























Interactive Weather Map
Tropical Storm Tracking
New forecast layout! Learn more

10-Day Weather Forecast

Advertisements
Track Severe Weather on mobile